sensor_id;sensor_type;location;lat;lon;timestamp;pressure;altitude;pressure_sealevel;temperature;humidity
54900;BME280;40801;41.924;25.562;2023-04-01T00:01:51;98698.31;;;12.58;57.83
54900;BME280;40801;41.924;25.562;2023-04-01T00:04:17;98688.16;;;12.55;57.58
54900;BME280;40801;41.924;25.562;2023-04-01T00:06:42;98693.91;;;12.53;58.13
54900;BME280;40801;41.924;25.562;2023-04-01T00:09:08;98700.56;;;12.56;58.25
54900;BME280;40801;41.924;25.562;2023-04-01T00:11:33;98691.22;;;12.53;58.54
54900;BME280;40801;41.924;25.562;2023-04-01T00:13:58;98694.38;;;12.55;58.44
54900;BME280;40801;41.924;25.562;2023-04-01T00:16:24;98696.03;;;12.48;59.17
54900;BME280;40801;41.924;25.562;2023-04-01T00:18:50;98689.84;;;12.47;59.05
54900;BME280;40801;41.924;25.562;2023-04-01T00:21:17;98700.22;;;12.45;59.08
54900;BME280;40801;41.924;25.562;2023-04-01T00:23:43;98691.59;;;12.43;59.23
54900;BME280;40801;41.924;25.562;2023-04-01T00:26:09;98690.63;;;12.48;59.05
54900;BME280;40801;41.924;25.562;2023-04-01T00:28:34;98690.28;;;12.49;58.83
54900;BME280;40801;41.924;25.562;2023-04-01T00:31:06;98667.88;;;12.49;58.74
54900;BME280;40801;41.924;25.562;2023-04-01T00:33:31;98666.63;;;12.46;58.86
54900;BME280;40801;41.924;25.562;2023-04-01T00:36:09;98664.56;;;12.43;59.22
54900;BME280;40801;41.924;25.562;2023-04-01T00:38:35;98672.09;;;12.37;59.29
54900;BME280;40801;41.924;25.562;2023-04-01T00:41:00;98675.25;;;12.39;59.16
54900;BME280;40801;41.924;25.562;2023-04-01T00:43:25;98667.50;;;12.38;59.19
54900;BME280;40801;41.924;25.562;2023-04-01T00:45:51;98657.34;;;12.35;59.30
54900;BME280;40801;41.924;25.562;2023-04-01T00:48:23;98651.47;;;12.33;59.38
54900;BME280;40801;41.924;25.562;2023-04-01T00:51:06;98662.53;;;12.40;59.10
54900;BME280;40801;41.924;25.562;2023-04-01T00:53:36;98653.28;;;12.41;59.42
54900;BME280;40801;41.924;25.562;2023-04-01T00:56:07;98658.72;;;12.41;59.60
54900;BME280;40801;41.924;25.562;2023-04-01T00:58:38;98657.28;;;12.44;59.55
54900;BME280;40801;41.924;25.562;2023-04-01T01:01:04;98656.16;;;12.45;59.52
54900;BME280;40801;41.924;25.562;2023-04-01T01:03:30;98654.88;;;12.42;59.74
54900;BME280;40801;41.924;25.562;2023-04-01T01:06:08;98654.69;;;12.47;59.29
54900;BME280;40801;41.924;25.562;2023-04-01T01:36:09;98665.56;;;12.38;59.32
54900;BME280;40801;41.924;25.562;2023-04-01T01:38:38;98668.03;;;12.31;59.31
54900;BME280;40801;41.924;25.562;2023-04-01T01:41:05;98660.94;;;12.27;59.29
54900;BME280;40801;41.924;25.562;2023-04-01T01:43:39;98650.34;;;12.22;59.77
54900;BME280;40801;41.924;25.562;2023-04-01T01:46:10;98655.81;;;12.13;59.82
54900;BME280;40801;41.924;25.562;2023-04-01T01:48:37;98650.59;;;12.08;59.67
54900;BME280;40801;41.924;25.562;2023-04-01T01:51:05;98665.91;;;12.04;59.88
54900;BME280;40801;41.924;25.562;2023-04-01T01:53:31;98667.78;;;11.91;60.52
54900;BME280;40801;41.924;25.562;2023-04-01T01:55:56;98671.00;;;11.85;60.72
54900;BME280;40801;41.924;25.562;2023-04-01T01:58:28;98665.06;;;11.91;60.45
54900;BME280;40801;41.924;25.562;2023-04-01T02:01:06;98671.28;;;11.92;60.96
54900;BME280;40801;41.924;25.562;2023-04-01T02:03:36;98667.56;;;11.96;60.00
54900;BME280;40801;41.924;25.562;2023-04-01T02:06:05;98671.31;;;12.04;59.94
54900;BME280;40801;41.924;25.562;2023-04-01T02:08:36;98675.00;;;11.99;60.76
54900;BME280;40801;41.924;25.562;2023-04-01T02:11:16;98675.09;;;11.91;61.81
54900;BME280;40801;41.924;25.562;2023-04-01T02:13:53;98678.47;;;11.88;61.81
54900;BME280;40801;41.924;25.562;2023-04-01T02:16:33;98677.34;;;11.89;62.54
54900;BME280;40801;41.924;25.562;2023-04-01T02:19:00;98670.28;;;11.96;61.17
54900;BME280;40801;41.924;25.562;2023-04-01T02:21:33;98658.13;;;12.02;60.79
54900;BME280;40801;41.924;25.562;2023-04-01T02:24:02;98647.53;;;11.97;61.19
54900;BME280;40801;41.924;25.562;2023-04-01T02:26:30;98650.78;;;11.91;61.32
54900;BME280;40801;41.924;25.562;2023-04-01T02:28:56;98642.00;;;11.94;60.63
54900;BME280;40801;41.924;25.562;2023-04-01T02:31:23;98643.47;;;11.91;60.75
54900;BME280;40801;41.924;25.562;2023-04-01T02:33:49;98639.97;;;11.91;61.01
54900;BME280;40801;41.924;25.562;2023-04-01T02:36:16;98640.81;;;11.83;61.51
54900;BME280;40801;41.924;25.562;2023-04-01T02:38:44;98640.03;;;11.82;61.62
54900;BME280;40801;41.924;25.562;2023-04-01T02:41:10;98644.19;;;11.79;61.92
54900;BME280;40801;41.924;25.562;2023-04-01T02:43:36;98651.63;;;11.83;61.47
54900;BME280;40801;41.924;25.562;2023-04-01T02:46:01;98643.06;;;11.81;61.53
54900;BME280;40801;41.924;25.562;2023-04-01T02:48:27;98643.69;;;11.77;61.59
54900;BME280;40801;41.924;25.562;2023-04-01T02:50:53;98633.75;;;11.69;62.16
54900;BME280;40801;41.924;25.562;2023-04-01T02:53:18;98627.97;;;11.79;61.70
54900;BME280;40801;41.924;25.562;2023-04-01T02:55:44;98625.78;;;11.73;62.04
54900;BME280;40801;41.924;25.562;2023-04-01T02:58:10;98630.50;;;11.76;61.75
54900;BME280;40801;41.924;25.562;2023-04-01T03:00:36;98618.59;;;11.77;61.57
54900;BME280;40801;41.924;25.562;2023-04-01T03:03:01;98626.66;;;11.86;61.50
54900;BME280;40801;41.924;25.562;2023-04-01T03:05:28;98623.47;;;11.84;61.52
54900;BME280;40801;41.924;25.562;2023-04-01T03:07:53;98624.44;;;11.88;61.38
54900;BME280;40801;41.924;25.562;2023-04-01T03:10:19;98633.78;;;11.90;61.57
54900;BME280;40801;41.924;25.562;2023-04-01T03:12:45;98632.06;;;11.86;61.89
54900;BME280;40801;41.924;25.562;2023-04-01T03:15:12;98618.88;;;11.84;61.62
54900;BME280;40801;41.924;25.562;2023-04-01T03:17:39;98615.31;;;11.92;61.61
54900;BME280;40801;41.924;25.562;2023-04-01T03:20:05;98611.50;;;11.93;61.23
54900;BME280;40801;41.924;25.562;2023-04-01T03:22:31;98602.72;;;11.96;61.38
54900;BME280;40801;41.924;25.562;2023-04-01T03:24:56;98608.34;;;11.91;61.61
54900;BME280;40801;41.924;25.562;2023-04-01T03:27:22;98610.81;;;11.96;61.19
54900;BME280;40801;41.924;25.562;2023-04-01T03:29:48;98610.72;;;11.93;61.43
54900;BME280;40801;41.924;25.562;2023-04-01T03:32:13;98617.69;;;11.94;61.43
54900;BME280;40801;41.924;25.562;2023-04-01T03:34:39;98608.00;;;11.93;61.83
54900;BME280;40801;41.924;25.562;2023-04-01T03:37:04;98600.22;;;11.91;61.78
54900;BME280;40801;41.924;25.562;2023-04-01T03:39:31;98599.00;;;11.89;61.53
54900;BME280;40801;41.924;25.562;2023-04-01T03:41:56;98598.09;;;11.97;61.43
54900;BME280;40801;41.924;25.562;2023-04-01T03:44:22;98592.38;;;11.98;61.33
54900;BME280;40801;41.924;25.562;2023-04-01T03:46:47;98585.16;;;11.90;61.59
54900;BME280;40801;41.924;25.562;2023-04-01T03:49:12;98595.88;;;11.78;62.09
54900;BME280;40801;41.924;25.562;2023-04-01T03:51:39;98595.88;;;11.78;61.91
54900;BME280;40801;41.924;25.562;2023-04-01T03:54:05;98601.16;;;11.95;60.99
54900;BME280;40801;41.924;25.562;2023-04-01T03:56:31;98599.34;;;11.99;60.56
54900;BME280;40801;41.924;25.562;2023-04-01T03:58:56;98594.41;;;12.01;60.71
54900;BME280;40801;41.924;25.562;2023-04-01T04:01:22;98602.50;;;12.01;60.89
54900;BME280;40801;41.924;25.562;2023-04-01T04:03:48;98606.53;;;11.95;61.28
54900;BME280;40801;41.924;25.562;2023-04-01T04:06:16;98604.38;;;11.89;61.52
54900;BME280;40801;41.924;25.562;2023-04-01T04:08:41;98597.47;;;11.79;61.58
54900;BME280;40801;41.924;25.562;2023-04-01T04:11:08;98597.78;;;11.77;61.72
54900;BME280;40801;41.924;25.562;2023-04-01T04:13:33;98605.28;;;11.72;61.20
54900;BME280;40801;41.924;25.562;2023-04-01T04:15:59;98611.59;;;11.55;61.82
54900;BME280;40801;41.924;25.562;2023-04-01T04:18:24;98607.22;;;11.30;62.89
54900;BME280;40801;41.924;25.562;2023-04-01T04:20:49;98601.81;;;11.30;62.48
54900;BME280;40801;41.924;25.562;2023-04-01T04:23:17;98601.81;;;11.30;62.31
54900;BME280;40801;41.924;25.562;2023-04-01T04:25:53;98608.63;;;11.27;62.39
54900;BME280;40801;41.924;25.562;2023-04-01T04:28:19;98611.19;;;11.24;62.17
54900;BME280;40801;41.924;25.562;2023-04-01T04:30:45;98614.03;;;11.27;62.06
54900;BME280;40801;41.924;25.562;2023-04-01T04:33:10;98626.47;;;11.20;62.50
54900;BME280;40801;41.924;25.562;2023-04-01T04:35:36;98621.34;;;11.27;62.26
54900;BME280;40801;41.924;25.562;2023-04-01T04:38:01;98606.47;;;11.21;62.36
54900;BME280;40801;41.924;25.562;2023-04-01T04:40:26;98602.16;;;11.28;62.06
54900;BME280;40801;41.924;25.562;2023-04-01T04:42:55;98603.56;;;11.26;62.31
54900;BME280;40801;41.924;25.562;2023-04-01T04:45:20;98611.06;;;11.20;62.68
54900;BME280;40801;41.924;25.562;2023-04-01T04:47:45;98617.25;;;11.21;62.55
54900;BME280;40801;41.924;25.562;2023-04-01T04:50:11;98616.44;;;11.29;62.05
54900;BME280;40801;41.924;25.562;2023-04-01T04:52:37;98607.38;;;11.25;62.68
54900;BME280;40801;41.924;25.562;2023-04-01T04:55:02;98612.38;;;11.14;63.47
54900;BME280;40801;41.924;25.562;2023-04-01T04:57:28;98604.47;;;11.09;63.32
54900;BME280;40801;41.924;25.562;2023-04-01T04:59:53;98614.34;;;11.05;63.48
54900;BME280;40801;41.924;25.562;2023-04-01T05:02:18;98616.44;;;10.99;63.90
54900;BME280;40801;41.924;25.562;2023-04-01T05:04:44;98621.13;;;11.11;63.00
54900;BME280;40801;41.924;25.562;2023-04-01T05:07:10;98610.28;;;11.20;63.33
54900;BME280;40801;41.924;25.562;2023-04-01T05:09:36;98604.84;;;11.28;63.37
54900;BME280;40801;41.924;25.562;2023-04-01T05:12:01;98604.13;;;11.40;62.90
54900;BME280;40801;41.924;25.562;2023-04-01T05:14:27;98590.22;;;11.50;63.12
54900;BME280;40801;41.924;25.562;2023-04-01T05:16:52;98588.41;;;11.75;61.62
54900;BME280;40801;41.924;25.562;2023-04-01T05:19:19;98576.78;;;11.83;61.27
54900;BME280;40801;41.924;25.562;2023-04-01T05:21:44;98569.50;;;11.96;61.18
54900;BME280;40801;41.924;25.562;2023-04-01T05:24:10;98576.28;;;12.02;60.68
54900;BME280;40801;41.924;25.562;2023-04-01T05:26:35;98581.00;;;12.05;60.80
54900;BME280;40801;41.924;25.562;2023-04-01T05:29:03;98578.97;;;12.02;60.80
54900;BME280;40801;41.924;25.562;2023-04-01T05:31:29;98582.44;;;11.90;61.24
54900;BME280;40801;41.924;25.562;2023-04-01T05:33:54;98580.66;;;11.94;60.72
54900;BME280;40801;41.924;25.562;2023-04-01T05:36:20;98576.81;;;11.95;60.75
54900;BME280;40801;41.924;25.562;2023-04-01T05:38:45;98566.94;;;11.99;60.96
54900;BME280;40801;41.924;25.562;2023-04-01T05:41:13;98561.44;;;12.08;60.77
54900;BME280;40801;41.924;25.562;2023-04-01T05:43:39;98565.31;;;12.31;60.81
54900;BME280;40801;41.924;25.562;2023-04-01T05:46:05;98562.97;;;12.66;60.96
54900;BME280;40801;41.924;25.562;2023-04-01T05:48:30;98565.78;;;13.07;60.39
54900;BME280;40801;41.924;25.562;2023-04-01T05:50:56;98566.06;;;13.29;59.80
54900;BME280;40801;41.924;25.562;2023-04-01T05:53:21;98568.44;;;13.71;59.09
54900;BME280;40801;41.924;25.562;2023-04-01T05:55:47;98569.13;;;14.12;58.19
54900;BME280;40801;41.924;25.562;2023-04-01T05:58:12;98565.00;;;14.62;57.22
54900;BME280;40801;41.924;25.562;2023-04-01T06:00:38;98560.31;;;14.94;56.15
54900;BME280;40801;41.924;25.562;2023-04-01T06:03:03;98565.81;;;15.32;55.22
54900;BME280;40801;41.924;25.562;2023-04-01T06:05:39;98578.34;;;15.37;52.09
54900;BME280;40801;41.924;25.562;2023-04-01T06:08:12;98571.13;;;15.44;52.59
54900;BME280;40801;41.924;25.562;2023-04-01T06:11:07;98566.59;;;15.68;51.36
54900;BME280;40801;41.924;25.562;2023-04-01T06:32:37;98555.38;;;16.11;51.24
54900;BME280;40801;41.924;25.562;2023-04-01T06:44:05;98527.22;;;16.00;51.24
54900;BME280;40801;41.924;25.562;2023-04-01T06:55:24;98499.44;;;17.13;49.46
54900;BME280;40801;41.924;25.562;2023-04-01T06:57:52;98503.25;;;17.38;49.06
54900;BME280;40801;41.924;25.562;2023-04-01T07:00:40;98515.53;;;17.55;48.94
54900;BME280;40801;41.924;25.562;2023-04-01T07:03:31;98511.00;;;17.66;48.76
54900;BME280;40801;41.924;25.562;2023-04-01T07:06:02;98509.75;;;17.63;48.94
54900;BME280;40801;41.924;25.562;2023-04-01T07:08:29;98495.53;;;17.77;48.84
54900;BME280;40801;41.924;25.562;2023-04-01T07:11:04;98498.13;;;18.00;48.34
54900;BME280;40801;41.924;25.562;2023-04-01T07:18:52;98485.44;;;18.70;48.08
54900;BME280;40801;41.924;25.562;2023-04-01T07:21:25;98469.19;;;18.95;47.46
54900;BME280;40801;41.924;25.562;2023-04-01T07:23:54;98476.38;;;19.28;47.64
54900;BME280;40801;41.924;25.562;2023-04-01T07:26:23;98461.28;;;19.62;46.91
54900;BME280;40801;41.924;25.562;2023-04-01T07:28:52;98464.84;;;19.80;46.54
54900;BME280;40801;41.924;25.562;2023-04-01T07:31:30;98459.72;;;19.61;46.83
54900;BME280;40801;41.924;25.562;2023-04-01T07:36:46;98450.66;;;19.43;49.64
54900;BME280;40801;41.924;25.562;2023-04-01T07:43:08;98438.63;;;19.58;49.78
54900;BME280;40801;41.924;25.562;2023-04-01T07:45:30;98436.72;;;19.84;49.66
54900;BME280;40801;41.924;25.562;2023-04-01T07:48:39;98424.59;;;20.20;48.64
54900;BME280;40801;41.924;25.562;2023-04-01T07:56:49;98419.34;;;22.36;43.62
54900;BME280;40801;41.924;25.562;2023-04-01T07:59:26;98412.19;;;22.87;43.06
54900;BME280;40801;41.924;25.562;2023-04-01T08:04:57;98395.53;;;22.98;41.49
54900;BME280;40801;41.924;25.562;2023-04-01T08:20:58;98344.84;;;23.29;40.37
54900;BME280;40801;41.924;25.562;2023-04-01T08:23:31;98334.91;;;22.74;40.72
54900;BME280;40801;41.924;25.562;2023-04-01T08:28:32;98364.84;;;21.83;42.03
54900;BME280;40801;41.924;25.562;2023-04-01T08:31:04;98359.09;;;21.67;42.38
54900;BME280;40801;41.924;25.562;2023-04-01T08:33:32;98357.53;;;21.65;42.98
54900;BME280;40801;41.924;25.562;2023-04-01T08:43:51;98347.69;;;21.06;43.80
54900;BME280;40801;41.924;25.562;2023-04-01T08:54:36;98337.34;;;20.58;45.11
54900;BME280;40801;41.924;25.562;2023-04-01T09:19:40;98281.06;;;21.16;44.36
54900;BME280;40801;41.924;25.562;2023-04-01T09:28:18;98257.53;;;22.11;42.38
54900;BME280;40801;41.924;25.562;2023-04-01T09:31:13;98261.75;;;22.19;42.14
54900;BME280;40801;41.924;25.562;2023-04-01T09:44:58;98227.41;;;22.38;40.53
54900;BME280;40801;41.924;25.562;2023-04-01T10:14:51;98165.06;;;22.01;39.04
54900;BME280;40801;41.924;25.562;2023-04-01T10:21:22;98142.75;;;21.99;39.55
54900;BME280;40801;41.924;25.562;2023-04-01T10:23:25;98144.66;;;22.06;38.58
54900;BME280;40801;41.924;25.562;2023-04-01T10:46:33;98151.44;;;22.28;39.34
54900;BME280;40801;41.924;25.562;2023-04-01T10:52:06;98137.81;;;24.64;35.26
54900;BME280;40801;41.924;25.562;2023-04-01T10:55:10;98131.72;;;25.67;32.98
54900;BME280;40801;41.924;25.562;2023-04-01T11:15:05;98125.75;;;22.11;39.60
54900;BME280;40801;41.924;25.562;2023-04-01T11:20:38;98123.88;;;22.35;39.58
54900;BME280;40801;41.924;25.562;2023-04-01T11:33:46;98111.03;;;21.19;38.56
54900;BME280;40801;41.924;25.562;2023-04-01T11:36:34;98099.81;;;21.03;39.21
54900;BME280;40801;41.924;25.562;2023-04-01T11:42:03;98085.91;;;20.83;39.47
54900;BME280;40801;41.924;25.562;2023-04-01T11:44:40;98087.47;;;20.81;39.70
54900;BME280;40801;41.924;25.562;2023-04-01T11:50:37;98059.38;;;20.73;40.19
54900;BME280;40801;41.924;25.562;2023-04-01T12:01:11;98065.00;;;20.55;41.16
54900;BME280;40801;41.924;25.562;2023-04-01T12:11:50;98026.66;;;20.52;42.33
54900;BME280;40801;41.924;25.562;2023-04-01T12:19:44;97998.56;;;21.87;40.12
54900;BME280;40801;41.924;25.562;2023-04-01T12:22:26;97993.44;;;22.43;39.35
54900;BME280;40801;41.924;25.562;2023-04-01T12:41:55;97972.88;;;26.98;30.57
54900;BME280;40801;41.924;25.562;2023-04-01T12:44:37;97966.72;;;27.38;29.36
54900;BME280;40801;41.924;25.562;2023-04-01T12:55:48;97941.44;;;27.80;28.08
54900;BME280;40801;41.924;25.562;2023-04-01T12:58:43;97938.75;;;27.67;28.63
54900;BME280;40801;41.924;25.562;2023-04-01T13:04:19;97936.09;;;27.94;27.68
54900;BME280;40801;41.924;25.562;2023-04-01T13:16:13;97913.16;;;28.43;27.60
54900;BME280;40801;41.924;25.562;2023-04-01T13:22:02;97913.25;;;26.84;29.16
54900;BME280;40801;41.924;25.562;2023-04-01T13:27:29;97897.88;;;25.63;31.43
54900;BME280;40801;41.924;25.562;2023-04-01T13:32:29;97891.81;;;25.94;31.38
54900;BME280;40801;41.924;25.562;2023-04-01T13:43:37;97874.41;;;26.32;30.51
54900;BME280;40801;41.924;25.562;2023-04-01T13:46:10;97885.53;;;26.75;30.06
54900;BME280;40801;41.924;25.562;2023-04-01T13:49:05;97877.56;;;26.77;30.11
54900;BME280;40801;41.924;25.562;2023-04-01T13:57:36;97847.19;;;26.86;30.07
54900;BME280;40801;41.924;25.562;2023-04-01T14:00:30;97845.41;;;26.93;29.84
54900;BME280;40801;41.924;25.562;2023-04-01T14:03:13;97863.75;;;26.99;30.05
54900;BME280;40801;41.924;25.562;2023-04-01T14:05:48;97851.59;;;27.19;29.67
54900;BME280;40801;41.924;25.562;2023-04-01T14:25:10;97849.72;;;26.72;30.31
54900;BME280;40801;41.924;25.562;2023-04-01T14:28:09;97829.84;;;26.30;30.67
54900;BME280;40801;41.924;25.562;2023-04-01T14:44:55;98029.69;;;21.06;40.95
54900;BME280;40801;41.924;25.562;2023-04-01T14:52:41;98050.38;;;18.26;53.25
54900;BME280;40801;41.924;25.562;2023-04-01T14:55:31;98057.81;;;18.30;52.40
54900;BME280;40801;41.924;25.562;2023-04-01T14:58:12;98064.75;;;18.06;53.11
54900;BME280;40801;41.924;25.562;2023-04-01T15:03:23;98081.28;;;17.47;53.29
54900;BME280;40801;41.924;25.562;2023-04-01T15:11:47;98086.19;;;17.20;54.69
54900;BME280;40801;41.924;25.562;2023-04-01T15:20:25;98081.75;;;17.01;54.94
54900;BME280;40801;41.924;25.562;2023-04-01T15:28:33;98094.28;;;16.65;56.71
54900;BME280;40801;41.924;25.562;2023-04-01T15:31:04;98097.50;;;16.75;55.08
54900;BME280;40801;41.924;25.562;2023-04-01T15:44:04;98110.56;;;16.58;53.96
54900;BME280;40801;41.924;25.562;2023-04-01T15:46:49;98115.38;;;16.72;53.39
54900;BME280;40801;41.924;25.562;2023-04-01T15:49:31;98124.69;;;16.71;53.84
54900;BME280;40801;41.924;25.562;2023-04-01T15:52:16;98131.34;;;16.73;53.40
54900;BME280;40801;41.924;25.562;2023-04-01T16:02:46;98135.84;;;16.59;55.96
54900;BME280;40801;41.924;25.562;2023-04-01T16:27:29;98149.72;;;16.84;54.99
54900;BME280;40801;41.924;25.562;2023-04-01T16:33:01;98147.41;;;16.86;55.74
54900;BME280;40801;41.924;25.562;2023-04-01T16:35:49;98151.38;;;16.95;55.67
54900;BME280;40801;41.924;25.562;2023-04-01T16:38:33;98157.94;;;16.91;55.16
54900;BME280;40801;41.924;25.562;2023-04-01T16:41:24;98168.09;;;16.94;54.60
54900;BME280;40801;41.924;25.562;2023-04-01T16:46:52;98152.47;;;16.87;55.37
54900;BME280;40801;41.924;25.562;2023-04-01T16:49:46;98150.53;;;16.88;57.05
54900;BME280;40801;41.924;25.562;2023-04-01T16:52:34;98143.06;;;16.78;57.00
54900;BME280;40801;41.924;25.562;2023-04-01T16:55:04;98140.66;;;16.72;59.48
54900;BME280;40801;41.924;25.562;2023-04-01T16:57:48;98138.31;;;16.71;61.52
54900;BME280;40801;41.924;25.562;2023-04-01T17:02:51;98140.47;;;16.55;61.43
54900;BME280;40801;41.924;25.562;2023-04-01T17:08:15;98132.19;;;16.44;64.45
54900;BME280;40801;41.924;25.562;2023-04-01T17:27:44;98183.97;;;16.18;67.06
54900;BME280;40801;41.924;25.562;2023-04-01T17:33:10;98220.03;;;16.11;66.28
54900;BME280;40801;41.924;25.562;2023-04-01T17:52:32;98238.22;;;16.03;61.78
54900;BME280;40801;41.924;25.562;2023-04-01T17:57:56;98244.75;;;15.99;62.44
54900;BME280;40801;41.924;25.562;2023-04-01T18:00:32;98250.53;;;15.94;61.77
54900;BME280;40801;41.924;25.562;2023-04-01T18:03:20;98257.72;;;15.83;64.83
54900;BME280;40801;41.924;25.562;2023-04-01T18:06:07;98248.84;;;15.86;62.91
54900;BME280;40801;41.924;25.562;2023-04-01T18:20:06;98230.81;;;15.74;64.59
54900;BME280;40801;41.924;25.562;2023-04-01T18:22:45;98237.72;;;15.68;64.02
54900;BME280;40801;41.924;25.562;2023-04-01T18:25:19;98248.19;;;15.66;64.49
54900;BME280;40801;41.924;25.562;2023-04-01T18:27:52;98251.63;;;15.63;63.27
54900;BME280;40801;41.924;25.562;2023-04-01T18:30:26;98254.34;;;15.63;62.95
54900;BME280;40801;41.924;25.562;2023-04-01T18:35:53;98259.72;;;15.59;63.91
54900;BME280;40801;41.924;25.562;2023-04-01T18:38:33;98263.56;;;15.58;63.72
54900;BME280;40801;41.924;25.562;2023-04-01T18:41:14;98263.06;;;15.53;65.73
54900;BME280;40801;41.924;25.562;2023-04-01T18:43:48;98269.25;;;15.49;64.44
54900;BME280;40801;41.924;25.562;2023-04-01T18:52:36;98341.31;;;15.21;68.18
54900;BME280;40801;41.924;25.562;2023-04-01T18:57:42;98362.97;;;15.36;65.36
54900;BME280;40801;41.924;25.562;2023-04-01T19:00:20;98360.19;;;15.33;65.44
54900;BME280;40801;41.924;25.562;2023-04-01T19:05:46;98372.78;;;15.44;63.62
54900;BME280;40801;41.924;25.562;2023-04-01T19:08:26;98375.50;;;15.44;63.04
54900;BME280;40801;41.924;25.562;2023-04-01T19:19:03;98373.19;;;15.24;62.74
54900;BME280;40801;41.924;25.562;2023-04-01T19:21:37;98378.97;;;15.03;63.33
54900;BME280;40801;41.924;25.562;2023-04-01T19:24:11;98380.66;;;15.07;62.43
54900;BME280;40801;41.924;25.562;2023-04-01T19:29:31;98388.94;;;14.95;62.29
54900;BME280;40801;41.924;25.562;2023-04-01T19:37:39;98386.88;;;14.88;61.03
54900;BME280;40801;41.924;25.562;2023-04-01T19:46:08;98382.97;;;14.70;59.29
54900;BME280;40801;41.924;25.562;2023-04-01T19:51:31;98379.84;;;14.49;58.61
54900;BME280;40801;41.924;25.562;2023-04-01T19:54:10;98379.47;;;14.35;58.41
54900;BME280;40801;41.924;25.562;2023-04-01T19:57:15;98376.72;;;14.15;58.13
54900;BME280;40801;41.924;25.562;2023-04-01T20:16:03;98376.94;;;13.59;56.74
54900;BME280;40801;41.924;25.562;2023-04-01T20:18:58;98371.16;;;13.45;56.99
54900;BME280;40801;41.924;25.562;2023-04-01T20:21:56;98377.88;;;13.51;57.17
54900;BME280;40801;41.924;25.562;2023-04-01T20:24:45;98366.53;;;13.46;57.48
54900;BME280;40801;41.924;25.562;2023-04-01T20:30:17;98377.00;;;13.47;56.79
54900;BME280;40801;41.924;25.562;2023-04-01T20:35:42;98373.88;;;13.45;55.90
54900;BME280;40801;41.924;25.562;2023-04-01T20:41:26;98389.16;;;13.53;55.69
54900;BME280;40801;41.924;25.562;2023-04-01T20:52:42;98408.97;;;13.57;55.60
54900;BME280;40801;41.924;25.562;2023-04-01T20:55:47;98411.28;;;13.71;55.38
54900;BME280;40801;41.924;25.562;2023-04-01T20:59:05;98421.78;;;13.73;54.96
54900;BME280;40801;41.924;25.562;2023-04-01T21:12:34;98441.34;;;13.10;58.01
54900;BME280;40801;41.924;25.562;2023-04-01T21:20:49;98442.03;;;12.67;58.45
54900;BME280;40801;41.924;25.562;2023-04-01T21:24:03;98467.50;;;12.41;59.20
54900;BME280;40801;41.924;25.562;2023-04-01T21:26:46;98473.84;;;12.33;59.25
54900;BME280;40801;41.924;25.562;2023-04-01T21:29:33;98475.19;;;12.27;58.65
54900;BME280;40801;41.924;25.562;2023-04-01T21:49:09;98471.00;;;12.05;57.95
54900;BME280;40801;41.924;25.562;2023-04-01T22:03:05;98494.81;;;11.79;58.07
54900;BME280;40801;41.924;25.562;2023-04-01T22:06:03;98496.69;;;11.66;58.07
54900;BME280;40801;41.924;25.562;2023-04-01T22:08:56;98490.38;;;11.74;58.00
54900;BME280;40801;41.924;25.562;2023-04-01T22:11:39;98488.81;;;11.73;57.10
54900;BME280;40801;41.924;25.562;2023-04-01T22:14:26;98495.94;;;11.78;56.88
54900;BME280;40801;41.924;25.562;2023-04-01T22:17:05;98488.81;;;11.73;57.62
54900;BME280;40801;41.924;25.562;2023-04-01T22:24:58;98492.41;;;11.77;57.09
54900;BME280;40801;41.924;25.562;2023-04-01T22:30:19;98508.38;;;11.58;57.33
54900;BME280;40801;41.924;25.562;2023-04-01T22:35:42;98506.25;;;11.64;57.39
54900;BME280;40801;41.924;25.562;2023-04-01T22:41:14;98496.03;;;11.48;57.93
54900;BME280;40801;41.924;25.562;2023-04-01T22:43:43;98500.59;;;11.57;57.67
54900;BME280;40801;41.924;25.562;2023-04-01T22:54:42;98502.19;;;11.58;57.43
54900;BME280;40801;41.924;25.562;2023-04-01T22:57:14;98504.28;;;11.52;57.62
54900;BME280;40801;41.924;25.562;2023-04-01T22:59:54;98491.81;;;11.60;57.26
54900;BME280;40801;41.924;25.562;2023-04-01T23:02:30;98500.25;;;11.58;56.99
54900;BME280;40801;41.924;25.562;2023-04-01T23:05:00;98499.47;;;11.58;57.12
54900;BME280;40801;41.924;25.562;2023-04-01T23:08:00;98514.00;;;11.65;56.85
54900;BME280;40801;41.924;25.562;2023-04-01T23:10:39;98515.81;;;11.73;56.53
54900;BME280;40801;41.924;25.562;2023-04-01T23:13:34;98512.47;;;11.76;56.48
54900;BME280;40801;41.924;25.562;2023-04-01T23:15:57;98506.25;;;11.76;56.11
54900;BME280;40801;41.924;25.562;2023-04-01T23:21:07;98513.69;;;11.67;56.70
54900;BME280;40801;41.924;25.562;2023-04-01T23:28:56;98516.91;;;11.60;56.74
54900;BME280;40801;41.924;25.562;2023-04-01T23:34:00;98507.31;;;11.51;56.75
54900;BME280;40801;41.924;25.562;2023-04-01T23:36:27;98506.06;;;11.48;56.59
54900;BME280;40801;41.924;25.562;2023-04-01T23:38:53;98513.50;;;11.51;56.73
54900;BME280;40801;41.924;25.562;2023-04-01T23:41:27;98505.66;;;11.58;56.26
54900;BME280;40801;41.924;25.562;2023-04-01T23:46:25;98512.53;;;11.35;56.28
54900;BME280;40801;41.924;25.562;2023-04-01T23:48:52;98520.56;;;11.43;56.05
54900;BME280;40801;41.924;25.562;2023-04-01T23:51:27;98533.25;;;11.43;56.30
54900;BME280;40801;41.924;25.562;2023-04-01T23:54:13;98531.69;;;11.42;56.33
54900;BME280;40801;41.924;25.562;2023-04-01T23:56:48;98533.06;;;11.48;56.24
54900;BME280;40801;41.924;25.562;2023-04-01T23:59:19;98539.91;;;11.45;56.36
